Skip Navigation Links
NOAA logo - Click to go to the NOAA homepage
NOAA's National Weather Service
Alaska Aviation Weather Unit
  NWS logo - Click to go to the NWS homepage
Left Navbar Graphic     21 AKDT = 05 GMT

   
NOAA is celebrating 200 years of science, service, and stewardship. Visit the NOAA 200th celebration Web site to learn more.
USA.gov is the U.S. Government's official Web portal to all Federal, state and local government Web resources and services.
Facebook
NWS on Facebook

AAWU Home :: Display TAF Add Bookmark
PATQ 262310Z AUTO 09017KT 10SM OVC016 M13/M17 A3006=

SPECI PATQ 262339Z AUTO 10015KT 9SM -SN OVC014 M13/M16 A3006 RMK AO2
     SNE01B21 P0000 FZRANO TSNO=

SPECI PATQ 270053Z AUTO 08016KT 9SM OVC016 M13/M17 A3005 RMK AO2
     SNE16B32E51 P0000 FZRANO TSNO=

METAR PATQ 270056Z AUTO 08016KT 9SM OVC016 M14/M17 A3005=

METAR PATQ 270156Z AUTO 09017KT 9SM OVC014 M14/M17 A3005=

METAR PATQ 270356Z AUTO 09017KT 9SM -SN OVC014 M14/M17 A3005=

METAR PATQ 270456Z AUTO 09018KT 9SM -SN OVC014 M15/M17 A3005 RMK AO2
     SLP182 P0000 T11501172 FZRANO TSNO=


NOAA's National Weather Service
Alaska Aviation Weather Unit
6930 Sand Lake Road
Anchorage, AK 99502-1845
Disclaimer
Credits
Glossary
Privacy Policy
About Us
Career Opportunities
Contact AAWU Internet Services Site last modified: April, 17th 2012